ADDS METAR Data INFO
IDs: Format: Raw Decoded Include TAF

Data at: 0256 UTC 21 Jun 2018

METAR for:KX60 (Williston Muni, FL, US)
Text:KX60 210255Z AUTO 00000KT 10SM CLR 27/27 A2994 RMK A01
Temperature: 27.0°C ( 81°F)
Dewpoint: 27.0°C ( 81°F) [RH = 100%]
Pressure (altimeter):29.94 inches Hg (1014.0 mb)
Winds:calm
Visibility:10 or more sm (16+ km)
Ceiling:at least 12,000 feet AGL
Clouds:sky clear below 12,000 feet AGL
QC Flag:automated observation with no human augmentation